createdAt,value
2017-05-20T00:00:51.863Z,0
2017-05-20T00:01:51.820Z,0
2017-05-20T00:02:52.138Z,0
2017-05-20T00:03:51.524Z,0
2017-05-20T00:04:51.529Z,0
2017-05-20T00:05:52.161Z,0
2017-05-20T00:06:51.546Z,0
2017-05-20T00:07:51.873Z,0
2017-05-20T00:08:52.282Z,0
2017-05-20T00:09:52.197Z,0
2017-05-20T00:10:51.941Z,0
2017-05-20T00:11:51.896Z,0
2017-05-20T00:12:51.909Z,0
2017-05-20T00:13:51.915Z,0
2017-05-20T00:14:52.238Z,0
2017-05-20T00:15:51.928Z,0
2017-05-20T00:16:52.248Z,0
2017-05-20T00:17:52.262Z,0
2017-05-20T00:18:51.953Z,0
2017-05-20T00:19:51.966Z,0
2017-05-20T00:20:51.664Z,0
2017-05-20T00:21:52.290Z,0
2017-05-20T00:22:51.468Z,0
2017-05-20T00:23:52.360Z,0
2017-05-20T00:24:52.365Z,0
2017-05-20T00:25:52.321Z,0
2017-05-20T00:26:52.331Z,0
2017-05-20T00:27:52.341Z,0
2017-05-20T00:28:52.405Z,0
2017-05-20T00:29:52.356Z,0
2017-05-20T00:30:51.432Z,0
2017-05-20T00:31:51.753Z,0
2017-05-20T00:32:51.761Z,0
2017-05-20T00:33:52.127Z,0
2017-05-20T00:34:52.087Z,0
2017-05-20T00:35:52.191Z,0
2017-05-20T00:36:52.195Z,0
2017-05-20T00:37:52.417Z,0
2017-05-20T00:38:52.430Z,0
2017-05-20T00:39:52.130Z,0
2017-05-20T00:40:52.441Z,0
2017-05-20T00:41:52.449Z,0
2017-05-20T00:42:52.197Z,0
2017-05-20T00:43:51.897Z,0
2017-05-20T00:44:52.166Z,0
2017-05-20T00:45:52.174Z,0
2017-05-20T00:46:51.969Z,0
2017-05-20T00:47:52.199Z,0
2017-05-20T00:48:52.248Z,0
2017-05-20T00:49:52.570Z,0
2017-05-20T00:50:52.573Z,0
2017-05-20T00:51:52.220Z,0
2017-05-20T00:52:52.540Z,0
2017-05-20T00:53:52.245Z,0
2017-05-20T00:54:52.655Z,0
2017-05-20T00:55:52.567Z,0
2017-05-20T00:56:52.622Z,0
2017-05-20T00:57:52.267Z,0
2017-05-20T00:58:52.283Z,0
2017-05-20T00:59:52.282Z,0
2017-05-20T01:00:52.652Z,0
2017-05-20T01:01:52.301Z,0
2017-05-20T01:02:52.720Z,0
2017-05-20T01:03:52.324Z,0
2017-05-20T01:04:52.325Z,0
2017-05-20T01:05:52.332Z,0
2017-05-20T01:06:52.391Z,0
2017-05-20T01:07:52.345Z,0
2017-05-20T01:08:52.408Z,0
2017-05-20T01:09:52.728Z,0
2017-05-20T01:10:52.372Z,0
2017-05-20T01:11:52.380Z,0
2017-05-20T01:12:52.751Z,0
2017-05-20T01:13:52.396Z,0
2017-05-20T01:14:52.723Z,0
2017-05-20T01:15:52.511Z,0
2017-05-20T01:16:52.738Z,0
2017-05-20T01:17:52.789Z,0
2017-05-20T01:18:52.752Z,0
2017-05-20T01:19:52.135Z,0
2017-05-20T01:20:52.759Z,0
2017-05-20T01:21:52.457Z,0
2017-05-20T01:22:52.779Z,0
2017-05-20T01:23:52.479Z,0
2017-05-20T01:24:52.538Z,0
2017-05-20T01:25:52.555Z,0
2017-05-20T01:26:52.500Z,0
2017-05-20T01:27:52.567Z,0
2017-05-20T01:28:52.520Z,0
2017-05-20T01:29:52.829Z,0
2017-05-20T01:30:52.886Z,0
2017-05-20T01:31:52.590Z,0
2017-05-20T01:32:52.547Z,0
2017-05-20T01:33:52.869Z,0
2017-05-20T01:34:52.564Z,0
2017-05-20T01:35:52.625Z,0
2017-05-20T01:36:52.949Z,0
2017-05-20T01:37:52.897Z,0
2017-05-20T01:38:52.607Z,0
2017-05-20T01:39:52.603Z,0
2017-05-20T01:40:52.971Z,0
2017-05-20T01:41:52.615Z,0
2017-05-20T01:42:52.377Z,0
2017-05-20T01:43:52.635Z,0
2017-05-20T01:44:52.957Z,0
2017-05-20T01:45:53.008Z,0
2017-05-20T01:46:52.345Z,0
2017-05-20T01:47:52.410Z,0
2017-05-20T01:48:52.365Z,0
2017-05-20T01:49:52.997Z,0
2017-05-20T01:50:53.007Z,0
2017-05-20T01:51:53.010Z,0
2017-05-20T01:52:52.707Z,0
2017-05-20T01:53:53.128Z,0
2017-05-20T01:54:52.412Z,0
2017-05-20T01:55:52.727Z,0
2017-05-20T01:56:53.048Z,0
2017-05-20T01:57:52.744Z,0
2017-05-20T01:58:53.169Z,0
2017-05-20T01:59:53.069Z,0
2017-05-20T02:00:53.081Z,0
2017-05-20T02:01:52.772Z,0
2017-05-20T02:02:52.884Z,0
2017-05-20T02:03:52.797Z,0
2017-05-20T02:04:53.112Z,0
2017-05-20T02:05:53.123Z,0
2017-05-20T02:06:53.125Z,0
2017-05-20T02:07:53.138Z,0
2017-05-20T02:08:53.143Z,0
2017-05-20T02:09:53.148Z,0
2017-05-20T02:10:53.161Z,0
2017-05-20T02:11:53.163Z,0
2017-05-20T02:12:53.226Z,0
2017-05-20T02:13:52.928Z,0
2017-05-20T02:14:52.567Z,0
2017-05-20T02:15:53.247Z,0
2017-05-20T02:16:53.206Z,0
2017-05-20T02:17:52.904Z,0
2017-05-20T02:18:53.219Z,0
2017-05-20T02:19:52.914Z,0
2017-05-20T02:20:53.233Z,0
2017-05-20T02:21:53.241Z,0
2017-05-20T02:22:53.006Z,0
2017-05-20T02:23:53.000Z,0
2017-05-20T02:24:52.644Z,0
2017-05-20T02:25:53.275Z,0
2017-05-20T02:26:53.381Z,0
2017-05-20T02:27:53.292Z,0
2017-05-20T02:28:53.405Z,0
2017-05-20T02:29:53.302Z,0
2017-05-20T02:30:53.312Z,0
2017-05-20T02:31:53.011Z,0
2017-05-20T02:32:53.071Z,0
2017-05-20T02:33:53.334Z,0
2017-05-20T02:34:53.343Z,0
2017-05-20T02:35:53.089Z,0
2017-05-20T02:36:53.047Z,0
2017-05-20T02:37:53.371Z,0
2017-05-20T02:38:53.426Z,0
2017-05-20T02:39:53.383Z,0
2017-05-20T02:40:53.085Z,0
2017-05-20T02:41:53.084Z,0
2017-05-20T02:42:53.146Z,0
2017-05-20T02:43:53.153Z,0
2017-05-20T02:44:53.113Z,0
2017-05-20T02:45:53.121Z,0
2017-05-20T02:46:53.438Z,0
2017-05-20T02:47:52.829Z,0
2017-05-20T02:48:53.143Z,0
2017-05-20T02:49:52.896Z,0
2017-05-20T02:50:53.517Z,0
2017-05-20T02:51:53.477Z,0
2017-05-20T02:52:53.484Z,0
2017-05-20T02:53:53.490Z,0
2017-05-20T02:54:53.501Z,0
2017-05-20T02:55:53.198Z,0
2017-05-20T02:56:53.516Z,0
2017-05-20T02:57:53.526Z,0
2017-05-20T02:58:53.219Z,0
2017-05-20T02:59:53.591Z,0
2017-05-20T03:00:53.616Z,0
2017-05-20T03:01:53.553Z,0
2017-05-20T03:02:53.673Z,0
2017-05-20T03:03:53.571Z,0
2017-05-20T03:04:53.576Z,0
2017-05-20T03:05:53.585Z,0
2017-05-20T03:06:53.284Z,0
2017-05-20T03:07:53.604Z,0
2017-05-20T03:08:53.088Z,4
2017-05-20T03:09:53.041Z,0
2017-05-20T03:10:53.360Z,0
2017-05-20T03:11:53.328Z,4
2017-05-20T03:12:53.339Z,4
2017-05-20T03:13:53.650Z,4
2017-05-20T03:14:53.030Z,4
2017-05-20T03:15:53.400Z,4
2017-05-20T03:16:53.359Z,4
2017-05-20T03:17:53.370Z,4
2017-05-20T03:18:53.439Z,4
2017-05-20T03:19:53.078Z,8
2017-05-20T03:20:53.701Z,8
2017-05-20T03:21:53.451Z,8
2017-05-20T03:22:53.149Z,12
2017-05-20T03:23:53.735Z,12
2017-05-20T03:24:53.470Z,12
2017-05-20T03:25:53.738Z,12
2017-05-20T03:26:53.485Z,16
2017-05-20T03:27:53.762Z,16
2017-05-20T03:28:53.149Z,16
2017-05-20T03:29:53.463Z,16
2017-05-20T03:30:53.516Z,20
2017-05-20T03:31:53.838Z,20
2017-05-20T03:32:53.801Z,20
2017-05-20T03:33:53.177Z,20
2017-05-20T03:34:53.548Z,24
2017-05-20T03:35:53.863Z,24
2017-05-20T03:36:53.514Z,28
2017-05-20T03:37:53.522Z,32
2017-05-20T03:38:53.530Z,32
2017-05-20T03:39:53.586Z,36
2017-05-20T03:40:53.234Z,40
2017-05-20T03:41:53.963Z,44
2017-05-20T03:42:53.872Z,48
2017-05-20T03:43:53.877Z,52
2017-05-20T03:44:54.187Z,60
2017-05-20T03:45:53.640Z,68
2017-05-20T03:46:53.958Z,68
2017-05-20T03:47:53.701Z,76
2017-05-20T03:48:53.917Z,80
2017-05-20T03:49:53.672Z,88
2017-05-20T03:50:53.980Z,96
2017-05-20T03:51:53.939Z,100
2017-05-20T03:52:53.947Z,112
2017-05-20T03:53:54.008Z,116
2017-05-20T03:54:53.961Z,124
2017-05-20T03:55:53.970Z,136
2017-05-20T03:56:53.669Z,140
2017-05-20T03:57:53.681Z,156
2017-05-20T03:58:53.735Z,168
2017-05-20T03:59:53.742Z,184
2017-05-20T04:00:53.752Z,200
2017-05-20T04:01:54.019Z,216
2017-05-20T04:02:54.037Z,228
2017-05-20T04:03:53.772Z,244
2017-05-20T04:04:53.728Z,252
2017-05-20T04:05:54.096Z,260
2017-05-20T04:06:53.748Z,276
2017-05-20T04:07:54.069Z,280
2017-05-20T04:08:54.139Z,288
2017-05-20T04:09:53.774Z,300
2017-05-20T04:10:53.779Z,312
2017-05-20T04:11:53.784Z,312
2017-05-20T04:12:54.117Z,304
2017-05-20T04:13:54.113Z,292
2017-05-20T04:14:53.809Z,312
2017-05-20T04:15:53.819Z,348
2017-05-20T04:16:53.871Z,380
2017-05-20T04:17:53.833Z,400
2017-05-20T04:18:53.530Z,388
2017-05-20T04:19:53.902Z,380
2017-05-20T04:20:53.540Z,392
2017-05-20T04:21:54.178Z,428
2017-05-20T04:22:54.225Z,448
2017-05-20T04:23:53.876Z,424
2017-05-20T04:24:53.887Z,384
2017-05-20T04:25:54.206Z,384
2017-05-20T04:26:54.212Z,416
2017-05-20T04:27:54.273Z,480
2017-05-20T04:28:53.916Z,568
2017-05-20T04:29:54.247Z,664
2017-05-20T04:30:53.984Z,716
2017-05-20T04:31:53.625Z,760
2017-05-20T04:32:54.001Z,756
2017-05-20T04:33:53.337Z,696
2017-05-20T04:34:53.397Z,640
2017-05-20T04:35:53.655Z,652
2017-05-20T04:36:53.665Z,664
2017-05-20T04:37:53.680Z,680
2017-05-20T04:38:53.994Z,696
2017-05-20T04:39:54.002Z,668
2017-05-20T04:40:53.798Z,636
2017-05-20T04:41:54.017Z,540
2017-05-20T04:42:53.712Z,428
2017-05-20T04:43:53.728Z,440
2017-05-20T04:44:54.038Z,448
2017-05-20T04:45:54.360Z,420
2017-05-20T04:46:54.467Z,408
2017-05-20T04:47:54.391Z,404
2017-05-20T04:48:53.814Z,392
2017-05-20T04:49:53.817Z,372
2017-05-20T04:50:53.778Z,336
2017-05-20T04:51:54.409Z,320
2017-05-20T04:52:54.416Z,312
2017-05-20T04:53:54.109Z,308
2017-05-20T04:54:54.486Z,300
2017-05-20T04:55:53.822Z,296
2017-05-20T04:56:54.141Z,320
2017-05-20T04:57:54.146Z,364
2017-05-20T04:58:54.149Z,412
2017-05-20T04:59:54.486Z,468
2017-05-20T05:00:53.856Z,528
2017-05-20T05:01:54.225Z,604
2017-05-20T05:02:54.186Z,628
2017-05-20T05:03:54.243Z,608
2017-05-20T05:04:54.197Z,588
2017-05-20T05:05:53.895Z,520
2017-05-20T05:06:54.220Z,508
2017-05-20T05:07:54.541Z,536
2017-05-20T05:08:54.248Z,572
2017-05-20T05:09:53.927Z,624
2017-05-20T05:10:54.563Z,664
2017-05-20T05:11:54.252Z,1156
2017-05-20T05:12:54.316Z,832
2017-05-20T05:13:54.593Z,1560
2017-05-20T05:14:54.288Z,1128
2017-05-20T05:15:54.288Z,2848
2017-05-20T05:16:54.610Z,2884
2017-05-20T05:17:54.622Z,4084
2017-05-20T05:18:54.049Z,4036
2017-05-20T05:19:54.700Z,1772
2017-05-20T05:20:54.640Z,1268
2017-05-20T05:21:54.697Z,1380
2017-05-20T05:22:54.343Z,3920
2017-05-20T05:23:54.714Z,2580
2017-05-20T05:24:54.772Z,5008
2017-05-20T05:25:54.067Z,1728
2017-05-20T05:26:54.984Z,4188
2017-05-20T05:27:54.746Z,5388
2017-05-20T05:28:54.710Z,3852
2017-05-20T05:29:53.783Z,5532
2017-05-20T05:30:54.722Z,1840
2017-05-20T05:31:54.155Z,1668
2017-05-20T05:32:54.428Z,1736
2017-05-20T05:33:54.802Z,4016
2017-05-20T05:34:54.551Z,4340
2017-05-20T05:35:54.768Z,2792
2017-05-20T05:36:54.776Z,1444
2017-05-20T05:37:54.159Z,2396
2017-05-20T05:38:54.482Z,1120
2017-05-20T05:39:54.489Z,996
2017-05-20T05:40:54.858Z,1332
2017-05-20T05:41:54.825Z,836
2017-05-20T05:42:54.827Z,804
2017-05-20T05:43:54.212Z,920
2017-05-20T05:44:54.890Z,1160
2017-05-20T05:45:54.554Z,1116
2017-05-20T05:46:54.239Z,1184
2017-05-20T05:47:53.937Z,1172
2017-05-20T05:48:54.875Z,1272
2017-05-20T05:49:54.934Z,2000
2017-05-20T05:50:54.580Z,2116
2017-05-20T05:51:54.586Z,10428
2017-05-20T05:52:54.603Z,10152
2017-05-20T05:53:54.403Z,10256
2017-05-20T05:54:54.617Z,10148
2017-05-20T05:55:54.675Z,10136
2017-05-20T05:56:54.943Z,9520
2017-05-20T05:57:54.073Z,9652
2017-05-20T05:58:54.666Z,10508
2017-05-20T05:59:54.976Z,11088
2017-05-20T06:00:54.721Z,11316
2017-05-20T06:01:54.989Z,11284
2017-05-20T06:02:54.739Z,11324
2017-05-20T06:03:55.074Z,11276
2017-05-20T06:04:55.022Z,11540
2017-05-20T06:05:55.032Z,11044
2017-05-20T06:06:55.040Z,10056
2017-05-20T06:07:55.056Z,10472
2017-05-20T06:08:55.062Z,5712
2017-05-20T06:09:55.070Z,12736
2017-05-20T06:10:55.136Z,12592
2017-05-20T06:11:55.096Z,11992
2017-05-20T06:12:55.114Z,12548
2017-05-20T06:13:55.117Z,13976
2017-05-20T06:14:55.129Z,15296
2017-05-20T06:15:54.823Z,15296
2017-05-20T06:16:54.883Z,15104
2017-05-20T06:17:55.159Z,13800
2017-05-20T06:18:54.859Z,14208
2017-05-20T06:19:54.552Z,15648
2017-05-20T06:20:55.187Z,15648
2017-05-20T06:21:55.250Z,15552
2017-05-20T06:22:54.947Z,15648
2017-05-20T06:23:54.962Z,16192
2017-05-20T06:24:54.925Z,17056
2017-05-20T06:25:54.681Z,16960
2017-05-20T06:26:54.746Z,16224
2017-05-20T06:27:54.957Z,14528
2017-05-20T06:28:55.016Z,13344
2017-05-20T06:29:55.305Z,13408
2017-05-20T06:30:54.677Z,13824
2017-05-20T06:31:55.310Z,14336
2017-05-20T06:32:55.010Z,14880
2017-05-20T06:33:54.710Z,14688
2017-05-20T06:34:55.084Z,14752
2017-05-20T06:35:54.733Z,14400
2017-05-20T06:36:55.255Z,13856
2017-05-20T06:37:55.119Z,13760
2017-05-20T06:38:54.818Z,14080
2017-05-20T06:39:55.089Z,13856
2017-05-20T06:40:55.569Z,13760
2017-05-20T06:41:55.161Z,13792
2017-05-20T06:42:55.441Z,14176
2017-05-20T06:43:55.191Z,13664
2017-05-20T06:44:55.148Z,13056
2017-05-20T06:45:55.158Z,12256
2017-05-20T06:46:54.862Z,11968
2017-05-20T06:47:55.187Z,12416
2017-05-20T06:48:55.198Z,13184
2017-05-20T06:49:55.208Z,13728
2017-05-20T06:50:55.275Z,14144
2017-05-20T06:51:55.229Z,14400
2017-05-20T06:52:55.244Z,14592
2017-05-20T06:53:55.313Z,14816
2017-05-20T06:54:55.276Z,14848
2017-05-20T06:55:55.276Z,14496
2017-05-20T06:56:55.286Z,14976
2017-05-20T06:57:55.353Z,13952
2017-05-20T06:58:55.316Z,13856
2017-05-20T06:59:55.326Z,16288
2017-05-20T07:00:55.334Z,16992
2017-05-20T07:01:55.398Z,17696
2017-05-20T07:02:55.414Z,18080
2017-05-20T07:03:55.379Z,18656
2017-05-20T07:04:55.388Z,19680
2017-05-20T07:05:55.446Z,20896
2017-05-20T07:06:55.723Z,21184
2017-05-20T07:07:55.421Z,20000
2017-05-20T07:08:55.743Z,20192
2017-05-20T07:09:55.133Z,21152
2017-05-20T07:10:55.190Z,22944
2017-05-20T07:11:55.469Z,24960
2017-05-20T07:12:55.581Z,26016
2017-05-20T07:13:55.501Z,26464
2017-05-20T07:14:55.199Z,27104
2017-05-20T07:15:55.560Z,27488
2017-05-20T07:16:55.828Z,28032
2017-05-20T07:17:55.542Z,28960
2017-05-20T07:18:55.599Z,30080
2017-05-20T07:19:55.876Z,29952
2017-05-20T07:20:55.633Z,30176
2017-05-20T07:21:55.583Z,30880
2017-05-20T07:22:55.909Z,32608
2017-05-20T07:23:55.615Z,33664
2017-05-20T07:24:56.033Z,32672
2017-05-20T07:25:55.634Z,34560
2017-05-20T07:26:56.009Z,35136
2017-05-20T07:27:55.355Z,35200
2017-05-20T07:28:55.410Z,34656
2017-05-20T07:29:55.114Z,36928
2017-05-20T07:30:55.388Z,35264
2017-05-20T07:31:55.709Z,22496
2017-05-20T07:32:55.462Z,6836
2017-05-20T07:33:55.732Z,1372
2017-05-20T07:34:56.055Z,1232
2017-05-20T07:35:56.066Z,1160
2017-05-20T07:36:56.074Z,1392
2017-05-20T07:37:55.779Z,1352
2017-05-20T07:38:55.788Z,1448
2017-05-20T07:39:56.114Z,1532
2017-05-20T07:40:55.909Z,1288
2017-05-20T07:41:56.226Z,1064
2017-05-20T07:42:56.191Z,1000
2017-05-20T07:43:55.523Z,1112
2017-05-20T07:44:56.161Z,1104
2017-05-20T07:45:56.169Z,1228
2017-05-20T07:46:56.177Z,1264
2017-05-20T07:47:55.931Z,1260
2017-05-20T07:48:55.985Z,1264
2017-05-20T07:49:56.211Z,1272
2017-05-20T07:50:56.215Z,1376
2017-05-20T07:51:55.601Z,1436
2017-05-20T07:52:56.233Z,1400
2017-05-20T07:53:56.293Z,1444
2017-05-20T07:54:55.634Z,1404
2017-05-20T07:55:55.946Z,1352
2017-05-20T07:56:55.957Z,1360
2017-05-20T07:57:56.293Z,1520
2017-05-20T07:58:55.977Z,1412
2017-05-20T07:59:55.724Z,1064
2017-05-20T08:00:56.358Z,936
2017-05-20T08:01:56.004Z,992
2017-05-20T08:02:56.323Z,1200
2017-05-20T08:03:56.333Z,1464
2017-05-20T08:04:56.346Z,1424
2017-05-20T08:05:55.725Z,1392
2017-05-20T08:06:56.047Z,1340
2017-05-20T08:07:56.058Z,1292
2017-05-20T08:08:56.116Z,1224
2017-05-20T08:09:55.764Z,1228
2017-05-20T08:10:56.090Z,1220
2017-05-20T08:11:56.456Z,1104
2017-05-20T08:12:56.156Z,1144
2017-05-20T08:13:56.422Z,1244
2017-05-20T08:14:56.124Z,1352
2017-05-20T08:15:56.442Z,1436
2017-05-20T08:16:56.448Z,1484
2017-05-20T08:17:55.836Z,1580
2017-05-20T08:18:56.475Z,1604
2017-05-20T08:19:55.853Z,1348
2017-05-20T08:20:56.172Z,1476
2017-05-20T08:21:56.179Z,1376
2017-05-20T08:22:56.550Z,1220
2017-05-20T08:23:55.884Z,1288
2017-05-20T08:24:56.211Z,1184
2017-05-20T08:25:56.577Z,1112
2017-05-20T08:26:56.226Z,1156
2017-05-20T08:27:56.289Z,1300
2017-05-20T08:28:56.241Z,1416
2017-05-20T08:29:55.945Z,1220
2017-05-20T08:30:56.262Z,1056
2017-05-20T08:31:56.267Z,964
2017-05-20T08:32:56.333Z,900
2017-05-20T08:33:56.338Z,860
2017-05-20T08:34:56.301Z,788
2017-05-20T08:35:56.619Z,872
2017-05-20T08:36:56.319Z,1072
2017-05-20T08:37:56.321Z,1172
2017-05-20T08:38:56.692Z,1248
2017-05-20T08:39:56.652Z,1220
2017-05-20T08:40:56.663Z,1244
2017-05-20T08:41:56.355Z,1276
2017-05-20T08:42:56.072Z,1360
2017-05-20T08:43:56.399Z,1688
2017-05-20T08:44:55.812Z,1676
2017-05-20T08:45:56.443Z,1888
2017-05-20T08:46:56.708Z,2020
2017-05-20T08:47:56.726Z,1996
2017-05-20T08:48:56.423Z,1916
2017-05-20T08:49:56.110Z,1244
2017-05-20T08:50:56.487Z,1240
2017-05-20T08:51:56.445Z,1776
2017-05-20T08:52:56.461Z,1920
2017-05-20T08:53:56.153Z,2108
2017-05-20T08:54:56.471Z,2032
2017-05-20T08:55:56.579Z,1796
2017-05-20T08:56:56.794Z,1624
2017-05-20T08:57:56.505Z,1368
2017-05-20T08:58:56.922Z,1332
2017-05-20T08:59:56.831Z,1196
2017-05-20T09:00:56.521Z,1180
2017-05-20T09:01:56.530Z,1136
2017-05-20T09:02:56.853Z,1128
2017-05-20T09:03:56.859Z,1052
2017-05-20T09:04:56.868Z,1152
2017-05-20T09:05:55.943Z,1892
2017-05-20T09:06:56.936Z,948
2017-05-20T09:07:56.582Z,1036
2017-05-20T09:08:56.907Z,1492
2017-05-20T09:09:56.611Z,1220
2017-05-20T09:10:56.606Z,1200
2017-05-20T09:11:56.615Z,1268
2017-05-20T09:12:56.628Z,1276
2017-05-20T09:13:56.946Z,1220
2017-05-20T09:14:56.956Z,1388
2017-05-20T09:15:56.963Z,1032
2017-05-20T09:16:56.966Z,1004
2017-05-20T09:17:56.671Z,1048
2017-05-20T09:18:56.729Z,964
2017-05-20T09:19:57.001Z,828
2017-05-20T09:20:57.007Z,760
2017-05-20T09:21:57.021Z,696
2017-05-20T09:22:57.074Z,692
2017-05-20T09:23:56.619Z,708
2017-05-20T09:24:56.734Z,804
2017-05-20T09:25:56.475Z,832
2017-05-20T09:26:56.744Z,996
2017-05-20T09:27:56.131Z,1640
2017-05-20T09:28:57.125Z,2204
2017-05-20T09:29:56.768Z,2184
2017-05-20T09:30:56.831Z,1968
2017-05-20T09:31:57.100Z,1272
2017-05-20T09:32:56.489Z,1056
2017-05-20T09:33:57.165Z,1020
2017-05-20T09:34:56.817Z,912
2017-05-20T09:35:57.137Z,848
2017-05-20T09:36:57.138Z,808
2017-05-20T09:37:56.888Z,812
2017-05-20T09:38:57.209Z,780
2017-05-20T09:39:56.546Z,736
2017-05-20T09:40:57.172Z,688
2017-05-20T09:41:57.187Z,684
2017-05-20T09:42:56.932Z,684
2017-05-20T09:43:56.891Z,668
2017-05-20T09:44:57.205Z,660
2017-05-20T09:45:57.004Z,684
2017-05-20T09:46:57.229Z,716
2017-05-20T09:47:57.290Z,756
2017-05-20T09:48:56.620Z,828
2017-05-20T09:49:56.991Z,1164
2017-05-20T09:50:56.945Z,1060
2017-05-20T09:51:57.001Z,968
2017-05-20T09:52:56.987Z,1076
2017-05-20T09:53:56.660Z,1108
2017-05-20T09:54:57.341Z,1128
2017-05-20T09:55:56.677Z,1236
2017-05-20T09:56:56.745Z,920
2017-05-20T09:57:57.057Z,1320
2017-05-20T09:58:57.016Z,744
2017-05-20T09:59:57.074Z,1236
2017-05-20T10:00:57.082Z,684
2017-05-20T10:01:57.095Z,692
2017-05-20T10:02:57.103Z,672
2017-05-20T10:03:56.794Z,664
2017-05-20T10:04:57.117Z,736
2017-05-20T10:05:56.763Z,1420
2017-05-20T10:06:57.078Z,1476
2017-05-20T10:07:57.088Z,1544
2017-05-20T10:08:57.099Z,1196
2017-05-20T10:09:57.466Z,956
2017-05-20T10:10:57.165Z,1776
2017-05-20T10:11:57.434Z,1836
2017-05-20T10:12:56.871Z,1804
2017-05-20T10:13:57.148Z,1748
2017-05-20T10:14:57.151Z,1748
2017-05-20T10:15:57.205Z,1748
2017-05-20T10:16:56.854Z,1784
2017-05-20T10:17:57.225Z,1824
2017-05-20T10:18:57.494Z,1800
2017-05-20T10:19:57.194Z,1756
2017-05-20T10:20:57.506Z,1712
2017-05-20T10:21:57.565Z,1628
2017-05-20T10:22:57.530Z,1552
2017-05-20T10:23:57.225Z,1484
2017-05-20T10:24:57.235Z,1432
2017-05-20T10:25:57.242Z,1412
2017-05-20T10:26:57.614Z,1416
2017-05-20T10:27:57.310Z,1420
2017-05-20T10:28:57.324Z,1408
2017-05-20T10:29:57.651Z,1408
2017-05-20T10:30:56.712Z,1400
2017-05-20T10:31:57.612Z,1428
2017-05-20T10:32:57.713Z,780
2017-05-20T10:33:57.312Z,1532
2017-05-20T10:34:57.636Z,1500
2017-05-20T10:35:57.323Z,704
2017-05-20T10:36:57.337Z,720
2017-05-20T10:37:57.034Z,784
2017-05-20T10:38:57.353Z,768
2017-05-20T10:39:57.679Z,764
2017-05-20T10:40:57.371Z,720
2017-05-20T10:41:57.377Z,740
2017-05-20T10:42:57.384Z,856
2017-05-20T10:43:57.393Z,1396
2017-05-20T10:44:57.405Z,1388
2017-05-20T10:45:57.102Z,1376
2017-05-20T10:46:57.103Z,1424
2017-05-20T10:47:57.837Z,1492
2017-05-20T10:48:57.439Z,1600
2017-05-20T10:49:57.186Z,1704
2017-05-20T10:50:57.141Z,1404
2017-05-20T10:51:57.151Z,1300
2017-05-20T10:52:57.884Z,1692
2017-05-20T10:53:57.484Z,1704
2017-05-20T10:54:57.271Z,1736
2017-05-20T10:55:57.807Z,980
2017-05-20T10:56:57.505Z,960
2017-05-20T10:57:57.559Z,1712
2017-05-20T10:58:57.391Z,1720
2017-05-20T10:59:57.532Z,984
2017-05-20T11:00:57.545Z,944
2017-05-20T11:01:57.544Z,908
2017-05-20T11:02:57.250Z,848
2017-05-20T11:03:57.876Z,1592
2017-05-20T11:04:56.951Z,1656
2017-05-20T11:05:57.269Z,968
2017-05-20T11:06:57.014Z,1652
2017-05-20T11:07:57.345Z,1640
2017-05-20T11:08:57.606Z,1416
2017-05-20T11:09:57.613Z,952
2017-05-20T11:10:57.942Z,936
2017-05-20T11:11:57.631Z,1352
2017-05-20T11:12:57.379Z,928
2017-05-20T11:13:57.957Z,1268
2017-05-20T11:14:57.661Z,804
2017-05-20T11:15:57.358Z,848
2017-05-20T11:16:58.046Z,868
2017-05-20T11:17:57.997Z,988
2017-05-20T11:18:57.693Z,1080
2017-05-20T11:19:57.497Z,984
2017-05-20T11:20:57.402Z,1232
2017-05-20T11:21:57.768Z,1664
2017-05-20T11:22:57.415Z,1016
2017-05-20T11:23:58.105Z,1692
2017-05-20T11:24:57.747Z,1204
2017-05-20T11:25:57.750Z,1160
2017-05-20T11:26:58.081Z,1148
2017-05-20T11:27:57.824Z,1116
2017-05-20T11:28:57.780Z,1060
2017-05-20T11:29:58.111Z,992
2017-05-20T11:30:57.933Z,1104
2017-05-20T11:31:57.804Z,1552
2017-05-20T11:32:58.124Z,1484
2017-05-20T11:33:58.135Z,1176
2017-05-20T11:34:58.147Z,1424
2017-05-20T11:35:57.851Z,1460
2017-05-20T11:36:57.848Z,1484
2017-05-20T11:37:57.861Z,940
2017-05-20T11:38:57.918Z,1064
2017-05-20T11:39:57.571Z,1240
2017-05-20T11:40:57.888Z,1612
2017-05-20T11:41:57.891Z,1296
2017-05-20T11:42:57.597Z,1668
2017-05-20T11:43:57.911Z,1644
2017-05-20T11:44:57.923Z,1568
2017-05-20T11:45:58.282Z,1600
2017-05-20T11:46:57.938Z,1152
2017-05-20T11:47:57.641Z,1156
2017-05-20T11:48:58.000Z,1120
2017-05-20T11:49:57.961Z,1088
2017-05-20T11:50:58.065Z,1064
2017-05-20T11:51:58.027Z,1032
2017-05-20T11:52:58.300Z,1012
2017-05-20T11:53:58.046Z,992
2017-05-20T11:54:57.741Z,968
2017-05-20T11:55:58.012Z,956
2017-05-20T11:56:58.024Z,924
2017-05-20T11:57:58.084Z,1148
2017-05-20T11:58:58.350Z,1424
2017-05-20T11:59:57.787Z,1408
2017-05-20T12:00:57.795Z,1356
2017-05-20T12:01:58.077Z,1368
2017-05-20T12:02:58.389Z,1024
2017-05-20T12:03:57.820Z,1160
2017-05-20T12:04:58.091Z,1140
2017-05-20T12:05:57.790Z,1124
2017-05-20T12:06:57.487Z,1444
2017-05-20T12:07:57.809Z,1084
2017-05-20T12:08:57.821Z,1200
2017-05-20T12:09:58.135Z,1112
2017-05-20T12:10:57.834Z,868
2017-05-20T12:11:58.152Z,876
2017-05-20T12:12:58.473Z,836
2017-05-20T12:13:58.169Z,844
2017-05-20T12:14:57.971Z,900
2017-05-20T12:15:57.877Z,968
2017-05-20T12:16:57.933Z,1032
2017-05-20T12:17:58.519Z,1084
2017-05-20T12:18:58.210Z,1100
2017-05-20T12:19:57.959Z,1192
2017-05-20T12:20:58.234Z,1464
2017-05-20T12:21:57.932Z,1528
2017-05-20T12:22:58.559Z,1608
2017-05-20T12:23:58.255Z,1636
2017-05-20T12:24:57.953Z,1632
2017-05-20T12:25:58.334Z,1624
2017-05-20T12:26:57.967Z,1628
2017-05-20T12:27:57.983Z,1344
2017-05-20T12:28:57.997Z,1576
2017-05-20T12:29:57.999Z,1524
2017-05-20T12:30:58.625Z,1460
2017-05-20T12:31:58.016Z,1140
2017-05-20T12:32:58.019Z,1340
2017-05-20T12:33:58.651Z,980
2017-05-20T12:34:57.733Z,896
2017-05-20T12:35:58.048Z,880
2017-05-20T12:36:58.109Z,832
2017-05-20T12:37:58.062Z,760
2017-05-20T12:38:58.126Z,680
2017-05-20T12:39:58.709Z,704
2017-05-20T12:40:58.708Z,684
2017-05-20T12:41:58.510Z,904
2017-05-20T12:42:58.112Z,868
2017-05-20T12:43:58.123Z,852
2017-05-20T12:44:58.804Z,868
2017-05-20T12:45:58.135Z,668
2017-05-20T12:46:58.454Z,704
2017-05-20T12:47:58.470Z,740
2017-05-20T12:48:58.225Z,804
2017-05-20T12:49:58.483Z,800
2017-05-20T12:50:58.804Z,812
2017-05-20T12:51:58.548Z,1036
2017-05-20T12:52:58.559Z,976
2017-05-20T12:53:58.527Z,864
2017-05-20T12:54:58.212Z,844
2017-05-20T12:55:58.224Z,800
2017-05-20T12:56:58.232Z,732
2017-05-20T12:57:58.598Z,748
2017-05-20T12:58:58.871Z,800
2017-05-20T12:59:58.565Z,864
2017-05-20T13:00:58.576Z,828
2017-05-20T13:01:58.586Z,880
2017-05-20T13:02:57.969Z,980
2017-05-20T13:03:58.702Z,1044
2017-05-20T13:04:58.659Z,1032
2017-05-20T13:05:58.670Z,1060
2017-05-20T13:06:58.625Z,1176
2017-05-20T13:07:58.328Z,1212
2017-05-20T13:08:58.955Z,1176
2017-05-20T13:09:58.031Z,1048
2017-05-20T13:10:58.397Z,976
2017-05-20T13:11:58.359Z,932
2017-05-20T13:12:58.414Z,944
2017-05-20T13:13:58.372Z,924
2017-05-20T13:14:58.435Z,772
2017-05-20T13:15:58.802Z,772
2017-05-20T13:16:58.450Z,924
2017-05-20T13:17:58.413Z,968
2017-05-20T13:18:59.088Z,888
2017-05-20T13:19:59.098Z,1016
2017-05-20T13:20:59.056Z,884
2017-05-20T13:21:58.754Z,856
2017-05-20T13:22:58.816Z,792
2017-05-20T13:23:59.082Z,684
2017-05-20T13:24:58.779Z,628
2017-05-20T13:25:59.097Z,640
2017-05-20T13:26:59.153Z,644
2017-05-20T13:27:59.124Z,668
2017-05-20T13:28:59.125Z,776
2017-05-20T13:29:58.514Z,788
2017-05-20T13:30:58.519Z,792
2017-05-20T13:31:58.835Z,776
2017-05-20T13:32:58.223Z,756
2017-05-20T13:33:59.168Z,784
2017-05-20T13:34:58.556Z,828
2017-05-20T13:35:58.872Z,868
2017-05-20T13:36:58.254Z,852
2017-05-20T13:37:59.209Z,876
2017-05-20T13:38:58.273Z,856
2017-05-20T13:39:58.596Z,852
2017-05-20T13:40:58.926Z,864
2017-05-20T13:41:58.706Z,868
2017-05-20T13:42:59.244Z,864
2017-05-20T13:43:59.307Z,840
2017-05-20T13:44:58.687Z,800